• Join FlightAware (Why Join?)
  • Login
  • US Flag 
12:09PM EST


 

Airport Tracker/Info


-or-


 

Live Flight TrackerFlight Track Log ✈ SKW7366 ✈ 08-Nov-2013 ✈ KAPN - KDTW

Flight Track Log - Related Links

Times and Time Zones

All times are in EST time to prevent confusion due to time zone crossing. See the SKW7366 flight status page for this flight to view local times or setup timezone preferences in your user account.

Time Position Orientation Groundspeed Altitude Reporting Facility
EST Latitude Longitude Course Direction KTS MPH feet Rate Location/Type
01:29PM 45.0894 -83.5631 354° North 165 190 1,500  Level Minneapolis Center
01:29PM 45.0933 -83.5636 354° North 162 186 1,800 2,507 Climbing Minneapolis Center
01:30PM 45.0747 -83.6108 241° Southwest 243 280 4,300 2,000 Climbing Minneapolis Center
01:31PM 45.0392 -83.6061 175° South 260 299 4,900 700 Climbing Minneapolis Center
01:31PM 45.0019 -83.6011 175° South 284 327 5,000 97 Climbing Minneapolis Center
01:32PM 44.9611 -83.6019 181° South 267 307 5,000  Level Minneapolis Center
01:32PM 44.9256 -83.6114 191° South 265 305 5,000  Level Minneapolis Center
01:33PM 44.8850 -83.6247 193° South 260 299 5,000  Level Minneapolis Center
01:33PM 44.8564 -83.6350 194° South 254 292 5,000  Level Minneapolis Center
01:34PM 44.8161 -83.6483 193° South 257 296 5,000 -61 Level Minneapolis Center
01:35PM 44.7394 -83.6744 194° South 263 303 4,900 -48 Descending Minneapolis Center
01:36PM 44.6692 -83.6978 193° South 263 303 4,900  Level Minneapolis Center
01:37PM 44.5958 -83.7225 193° South 255 293 4,900  Level Minneapolis Center
01:38PM 44.5292 -83.7458 194° South 252 290 4,900 48 Level Minneapolis Center
01:39PM 44.4567 -83.7714 194° South 251 289 5,000 48 Climbing Minneapolis Center
01:40PM 44.3894 -83.7914 192° South 250 288 5,000 48 Level Minneapolis Center
01:41PM 44.3167 -83.8178 195° South 252 290 5,100 1,548 Climbing Minneapolis Center
01:42PM 44.2436 -83.8408 193° South 269 310 8,200 3,290 Climbing Minneapolis Center
01:43PM 44.1594 -83.8686 193° South 289 333 11,900 3,120 Climbing Minneapolis Center
01:44PM 44.0728 -83.8975 193° South 298 343 14,700 1,488 Climbing Minneapolis Center
01:45PM 43.9839 -83.9272 194° South 332 382 15,000 145 Climbing Minneapolis Center
01:46PM 43.8878 -83.9608 194° South 347 399 15,000  Level Minneapolis Center
01:47PM 43.7928 -83.9908 193° South 350 403 15,000  Level Minneapolis Center
01:48PM 43.7044 -84.0200 193° South 337 388 15,000 -161 Level Minneapolis Center
01:50PM 43.5256 -84.0742 192° South 330 380 14,500 -355 Descending Minneapolis Center
01:51PM 43.4203 -84.0242 161° South 332 382 13,900 -484 Descending Minneapolis Center
01:52PM 43.3378 -83.9842 161° South 322 371 13,500 -435 Descending Cleveland Center
01:53PM 43.2561 -83.9469 162° South 315 362 13,000 -484 Descending Cleveland Center
01:54PM 43.1758 -83.9092 161° South 309 356 12,500 -484 Descending Cleveland Center
01:55PM 43.0753 -83.8636 162° South 317 365 12,000 -361 Descending Cleveland Center
01:56PM 43.0456 -83.8531 165° South 319 367 12,000  Level Cleveland Center
01:56PM 42.9953 -83.8283 160° South 313 360 12,000  Level Cleveland Center
01:57PM 42.9928 -83.8244 131° Southeast 316 364 12,000  Level Cleveland Center
01:57PM 42.9111 -83.7786 158° South 322 371 12,000  Level Cleveland Center
01:58PM 42.9111 -83.7792 270° West 321 369 12,000  Level Cleveland Center
01:59PM 42.8292 -83.7294 156° South 322 371 12,000  Level Cleveland Center
01:59PM 42.8294 -83.7289 56° Northeast 322 371 12,000 -1,180 Level Cleveland Center
02:00PM 42.7492 -83.6833 157° South 298 343 10,800 -1,065 Descending Cleveland Center
02:00PM 42.7506 -83.6833 360° North 315 362 10,900 -1,672 Climbing Cleveland Center
02:01PM 42.6853 -83.6142 142° Southeast 293 337 9,100 -1,645 Descending Cleveland Center
02:01PM 42.6886 -83.6161 337° Northwest 286 329 9,200 -1,791 Climbing Cleveland Center
02:02PM 42.6122 -83.5325 141° Southeast 291 335 7,100 -2,129 Descending Cleveland Center
02:02PM 42.6100 -83.5303 144° Southeast 300 345 7,000 -1,082 Descending Cleveland Center
02:03PM 42.5542 -83.4703 142° Southeast 257 296 6,000 -968 Descending Cleveland Center
02:03PM 42.5519 -83.4669 132° Southeast 276 318 6,000  Level Cleveland Center
02:04PM 42.4964 -83.4056 141° Southeast 269 310 6,000  Level Cleveland Center
02:04PM 42.4944 -83.4031 137° Southeast 266 306 6,000 -1,855 Level Cleveland Center
02:05PM 42.4444 -83.3472 141° Southeast 262 302 4,300 -1,714 Descending Cleveland Center
02:05PM 42.4381 -83.3392 137° Southeast 264 304 4,200 -295 Descending Cleveland Center
02:06PM 42.3914 -83.3000 148° Southeast 182 209 4,000 -194 Descending Cleveland Center
02:06PM 42.3869 -83.2997 177° South 236 272 4,000 -627 Level Cleveland Center
02:07PM 42.3350 -83.2978 178° South 179 206 3,300 -677 Descending Cleveland Center
02:07PM 42.3358 -83.2978 360° North 196 226 3,300 -492 Level Cleveland Center
02:08PM 42.2917 -83.3172 198° South 158 182 2,800 -484 Descending Cleveland Center
02:08PM 42.2928 -83.3153 52° Northeast 181 208 2,800 -1,161 Level Cleveland Center
02:09PM 42.2583 -83.3406 209° Southwest 129 148 1,600 -1,161 Descending Cleveland Center
02:09PM 42.2603 -83.3394 23° Northeast 151 174 1,600 -592 Level Cleveland Center
02:10PM 42.2294 -83.3631 210° Southwest 134 154 900 -677 Descending Cleveland Center